Time,TemperatureF,DewpointF,PressureIn,WindDirection,WindDirectionDegrees,WindSpeedMPH,WindSpeedGustMPH,Humidity,HourlyPrecipIn,Conditions,Clouds,dailyrainin,SolarRadiationWatts/m^2,SoftwareType,DateUTC
2013-12-29 00:02:00,54.0,48.0,-100.00,East,90,3.0,8.0,79,0.00,,,0.00,0.000000,,2013-12-29 05:02:00,
2013-12-29 00:12:00,54.0,48.0,-100.00,East,90,3.0,8.0,79,0.00,,,0.00,0.000000,,2013-12-29 05:12:00,
2013-12-29 00:43:00,53.0,49.0,-100.00,ESE,105,3.0,11.0,87,0.00,,,0.00,0.000000,,2013-12-29 05:43:00,
2013-12-29 00:53:00,53.0,49.0,-100.00,ESE,105,3.0,11.0,87,0.00,,,0.00,0.000000,,2013-12-29 05:53:00,
2013-12-29 01:02:00,53.0,49.0,-100.00,ESE,105,3.0,11.0,87,0.00,,,0.00,0.000000,,2013-12-29 06:02:00,
2013-12-29 01:12:00,53.0,49.0,-100.00,ESE,105,3.0,11.0,87,0.00,,,0.00,0.000000,,2013-12-29 06:12:00,
2013-12-29 01:43:00,51.0,50.0,-100.00,East,92,2.0,11.0,96,0.00,,,0.00,0.000000,,2013-12-29 06:43:00,
2013-12-29 01:52:00,51.0,50.0,-100.00,East,92,2.0,11.0,96,0.00,,,0.00,0.000000,,2013-12-29 06:52:00,
2013-12-29 02:02:00,51.0,50.0,-100.00,East,92,2.0,11.0,96,0.00,,,0.00,0.000000,,2013-12-29 07:02:00,
2013-12-29 02:42:00,53.0,53.0,-100.00,SE,133,3.0,9.0,100,-99.99,,,0.00,0.000000,,2013-12-29 07:42:00,
2013-12-29 03:42:00,63.0,63.0,-100.00,West,267,4.0,14.0,100,-99.99,,,0.03,0.000000,,2013-12-29 08:42:00,
2013-12-29 03:52:00,63.0,63.0,-100.00,West,267,4.0,14.0,100,-99.99,,,0.03,0.000000,,2013-12-29 08:52:00,
2013-12-29 04:02:00,63.0,63.0,-100.00,West,267,4.0,14.0,100,-99.99,,,0.03,0.000000,,2013-12-29 09:02:00,
2013-12-29 04:12:00,63.0,63.0,-100.00,West,267,4.0,14.0,100,-99.99,,,0.03,0.000000,,2013-12-29 09:12:00,
2013-12-29 04:43:00,63.0,63.0,-100.00,WSW,247,5.0,19.0,100,0.10,,,0.13,0.000000,,2013-12-29 09:43:00,
2013-12-29 04:53:00,63.0,63.0,-100.00,WSW,247,5.0,19.0,100,0.10,,,0.13,0.000000,,2013-12-29 09:53:00,
2013-12-29 05:03:00,63.0,63.0,-100.00,WSW,247,5.0,19.0,100,0.10,,,0.13,0.000000,,2013-12-29 10:03:00,
2013-12-29 05:13:00,63.0,63.0,-100.00,WSW,247,5.0,19.0,100,0.10,,,0.13,0.000000,,2013-12-29 10:13:00,
2013-12-29 05:43:00,64.0,64.0,-100.00,SW,216,7.0,17.0,100,0.02,,,0.15,0.000000,,2013-12-29 10:43:00,
2013-12-29 05:53:00,64.0,64.0,-100.00,SW,216,7.0,17.0,100,0.02,,,0.15,0.000000,,2013-12-29 10:53:00,
2013-12-29 06:02:00,64.0,64.0,-100.00,SW,216,7.0,17.0,100,0.02,,,0.15,0.000000,,2013-12-29 11:02:00,
2013-12-29 06:12:00,64.0,64.0,-100.00,SW,216,7.0,17.0,100,0.02,,,0.15,0.000000,,2013-12-29 11:12:00,
2013-12-29 06:43:00,66.0,66.0,-100.00,WNW,299,6.0,23.0,100,0.08,,,0.23,0.000000,,2013-12-29 11:43:00,
2013-12-29 06:53:00,66.0,66.0,-100.00,WNW,299,6.0,23.0,100,0.08,,,0.23,0.000000,,2013-12-29 11:53:00,
2013-12-29 07:02:00,66.0,66.0,-100.00,WNW,299,6.0,23.0,100,0.08,,,0.23,0.000000,,2013-12-29 12:02:00,
2013-12-29 07:11:00,66.0,66.0,-100.00,WNW,299,6.0,23.0,100,0.08,,,0.23,0.000000,,2013-12-29 12:11:00,
2013-12-29 07:42:00,67.0,66.0,-100.00,WSW,239,7.0,21.0,97,0.00,,,0.23,0.000000,,2013-12-29 12:42:00,
2013-12-29 07:52:00,67.0,66.0,-100.00,WSW,239,7.0,21.0,97,0.00,,,0.23,0.000000,,2013-12-29 12:52:00,
2013-12-29 08:02:00,67.0,66.0,-100.00,WSW,239,7.0,21.0,97,0.00,,,0.23,0.000000,,2013-12-29 13:02:00,
2013-12-29 08:11:00,67.0,66.0,-100.00,WSW,239,7.0,21.0,97,0.00,,,0.23,0.000000,,2013-12-29 13:11:00,
2013-12-29 08:42:00,66.0,66.0,-100.00,North,10,9.0,27.0,100,0.01,,,0.24,5.000000,,2013-12-29 13:42:00,
2013-12-29 08:53:00,66.0,66.0,-100.00,North,10,9.0,27.0,100,0.01,,,0.24,5.000000,,2013-12-29 13:53:00,
2013-12-29 09:02:00,66.0,66.0,-100.00,North,10,9.0,27.0,100,0.01,,,0.24,5.000000,,2013-12-29 14:02:00,
2013-12-29 09:11:00,66.0,66.0,-100.00,North,10,9.0,27.0,100,0.01,,,0.24,5.000000,,2013-12-29 14:11:00,
2013-12-29 09:42:00,66.0,65.0,-100.00,South,190,9.0,25.0,98,0.02,,,0.26,23.000000,,2013-12-29 14:42:00,
2013-12-29 09:52:00,66.0,65.0,-100.00,South,190,9.0,25.0,98,0.02,,,0.26,23.000000,,2013-12-29 14:52:00,
2013-12-29 10:02:00,66.0,65.0,-100.00,South,190,9.0,25.0,98,0.02,,,0.26,23.000000,,2013-12-29 15:02:00,
2013-12-29 10:12:00,66.0,65.0,-100.00,South,190,9.0,25.0,98,0.02,,,0.26,23.000000,,2013-12-29 15:12:00,
2013-12-29 10:44:00,66.0,65.0,-100.00,WSW,237,7.0,30.0,96,0.01,,,0.27,10.000000,,2013-12-29 15:44:00,
2013-12-29 10:53:00,66.0,65.0,-100.00,WSW,237,7.0,30.0,96,0.01,,,0.27,10.000000,,2013-12-29 15:53:00,
2013-12-29 11:03:00,66.0,65.0,-100.00,WSW,237,7.0,30.0,96,0.01,,,0.27,10.000000,,2013-12-29 16:03:00,
2013-12-29 11:13:00,66.0,65.0,-100.00,WSW,237,7.0,30.0,96,0.01,,,0.27,10.000000,,2013-12-29 16:13:00,
2013-12-29 11:43:00,65.0,65.0,-100.00,SSW,197,10.0,27.0,100,0.20,,,0.47,11.000000,,2013-12-29 16:43:00,
2013-12-29 11:53:00,65.0,65.0,-100.00,SSW,197,10.0,27.0,100,0.20,,,0.47,11.000000,,2013-12-29 16:53:00,
2013-12-29 12:02:00,65.0,65.0,-100.00,SSW,197,10.0,27.0,100,0.20,,,0.47,11.000000,,2013-12-29 17:02:00,
2013-12-29 12:12:00,65.0,65.0,-100.00,SSW,197,10.0,27.0,100,0.20,,,0.47,11.000000,,2013-12-29 17:12:00,
2013-12-29 12:42:00,67.0,67.0,-100.00,South,180,9.0,27.0,100,0.01,,,0.48,105.000000,,2013-12-29 17:42:00,
2013-12-29 12:52:00,67.0,67.0,-100.00,South,180,9.0,27.0,100,0.01,,,0.48,105.000000,,2013-12-29 17:52:00,
2013-12-29 13:02:00,67.0,67.0,-100.00,South,180,9.0,27.0,100,0.01,,,0.48,105.000000,,2013-12-29 18:02:00,
2013-12-29 13:12:00,67.0,67.0,-100.00,South,180,9.0,27.0,100,0.01,,,0.48,105.000000,,2013-12-29 18:12:00,
2013-12-29 13:42:00,68.0,68.0,-100.00,SW,233,10.0,28.0,100,0.00,,,0.48,81.000000,,2013-12-29 18:42:00,
2013-12-29 13:53:00,68.0,68.0,-100.00,SW,233,10.0,28.0,100,0.00,,,0.48,81.000000,,2013-12-29 18:53:00,
2013-12-29 14:01:00,68.0,68.0,-100.00,SW,233,10.0,28.0,100,0.00,,,0.48,81.000000,,2013-12-29 19:01:00,
2013-12-29 14:11:00,68.0,68.0,-100.00,SW,233,10.0,28.0,100,0.00,,,0.48,81.000000,,2013-12-29 19:11:00,
2013-12-29 14:43:00,67.0,67.0,-100.00,WSW,239,6.0,21.0,100,0.00,,,0.48,66.000000,,2013-12-29 19:43:00,
2013-12-29 14:52:00,67.0,67.0,-100.00,WSW,239,6.0,21.0,100,0.00,,,0.48,66.000000,,2013-12-29 19:52:00,
2013-12-29 15:02:00,67.0,67.0,-100.00,WSW,239,6.0,21.0,100,0.00,,,0.48,66.000000,,2013-12-29 20:02:00,
2013-12-29 15:11:00,67.0,67.0,-100.00,WSW,239,6.0,21.0,100,0.00,,,0.48,66.000000,,2013-12-29 20:11:00,
2013-12-29 15:42:00,71.0,69.0,-100.00,SW,226,3.0,14.0,94,0.00,,,0.48,127.000000,,2013-12-29 20:42:00,
2013-12-29 15:53:00,71.0,69.0,-100.00,SW,226,3.0,14.0,94,0.00,,,0.48,127.000000,,2013-12-29 20:53:00,
2013-12-29 16:02:00,71.0,69.0,-100.00,SW,226,3.0,14.0,94,0.00,,,0.48,127.000000,,2013-12-29 21:02:00,
2013-12-29 16:12:00,71.0,69.0,-100.00,SW,226,3.0,14.0,94,0.00,,,0.48,127.000000,,2013-12-29 21:12:00,
2013-12-29 16:43:00,69.0,67.0,-100.00,WSW,241,3.0,13.0,92,0.00,,,0.48,72.000000,,2013-12-29 21:43:00,
2013-12-29 16:54:00,69.0,67.0,-100.00,WSW,241,3.0,13.0,92,0.00,,,0.48,72.000000,,2013-12-29 21:54:00,
2013-12-29 17:03:00,69.0,67.0,-100.00,WSW,241,3.0,13.0,92,0.00,,,0.48,72.000000,,2013-12-29 22:03:00,
2013-12-29 17:12:00,69.0,67.0,-100.00,WSW,241,3.0,13.0,92,0.00,,,0.48,72.000000,,2013-12-29 22:12:00,
2013-12-29 17:42:00,62.0,62.0,-100.00,SSW,211,3.0,8.0,99,0.00,,,0.48,33.000000,,2013-12-29 22:42:00,
2013-12-29 17:52:00,62.0,62.0,-100.00,SSW,211,3.0,8.0,99,0.00,,,0.48,33.000000,,2013-12-29 22:52:00,
2013-12-29 18:02:00,62.0,62.0,-100.00,SSW,211,3.0,8.0,99,0.00,,,0.48,33.000000,,2013-12-29 23:02:00,
2013-12-29 18:12:00,62.0,62.0,-100.00,SSW,211,3.0,8.0,99,0.00,,,0.48,33.000000,,2013-12-29 23:12:00,
2013-12-29 18:42:00,60.0,60.0,-100.00,West,274,3.0,7.0,100,0.00,,,0.48,0.000000,,2013-12-29 23:42:00,
2013-12-29 18:53:00,60.0,60.0,-100.00,West,274,3.0,7.0,100,0.00,,,0.48,0.000000,,2013-12-29 23:53:00,
2013-12-29 19:02:00,60.0,60.0,-100.00,West,274,3.0,7.0,100,0.00,,,0.48,0.000000,,2013-12-30 00:02:00,
2013-12-29 19:12:00,60.0,60.0,-100.00,West,274,3.0,7.0,100,0.00,,,0.48,0.000000,,2013-12-30 00:12:00,
2013-12-29 19:42:00,58.0,58.0,-100.00,NW,305,4.0,10.0,100,0.00,,,0.48,0.000000,,2013-12-30 00:42:00,
2013-12-29 19:53:00,58.0,58.0,-100.00,NW,305,4.0,10.0,100,0.00,,,0.48,0.000000,,2013-12-30 00:53:00,
2013-12-29 20:02:00,58.0,58.0,-100.00,NW,305,4.0,10.0,100,0.00,,,0.48,0.000000,,2013-12-30 01:02:00,
2013-12-29 20:12:00,58.0,58.0,-100.00,NW,305,4.0,10.0,100,0.00,,,0.48,0.000000,,2013-12-30 01:12:00,
2013-12-29 20:43:00,57.0,57.0,-100.00,ESE,115,5.0,15.0,99,0.00,,,0.48,0.000000,,2013-12-30 01:43:00,
2013-12-29 20:52:00,57.0,57.0,-100.00,ESE,115,5.0,15.0,99,0.00,,,0.48,0.000000,,2013-12-30 01:52:00,
2013-12-29 21:02:00,57.0,57.0,-100.00,ESE,115,5.0,15.0,99,0.00,,,0.48,0.000000,,2013-12-30 02:02:00,
2013-12-29 21:12:00,57.0,57.0,-100.00,ESE,115,5.0,15.0,99,0.00,,,0.48,0.000000,,2013-12-30 02:12:00,
2013-12-29 21:42:00,53.0,52.0,-100.00,NW,307,4.0,10.0,98,0.00,,,0.48,0.000000,,2013-12-30 02:42:00,
2013-12-29 21:52:00,53.0,52.0,-100.00,NW,307,4.0,10.0,98,0.00,,,0.48,0.000000,,2013-12-30 02:52:00,
2013-12-29 22:02:00,53.0,52.0,-100.00,NW,307,4.0,10.0,98,0.00,,,0.48,0.000000,,2013-12-30 03:02:00,
2013-12-29 22:12:00,53.0,52.0,-100.00,NW,307,4.0,10.0,98,0.00,,,0.48,0.000000,,2013-12-30 03:12:00,
2013-12-29 22:43:00,52.0,52.0,-100.00,NW,315,3.0,9.0,100,0.00,,,0.48,0.000000,,2013-12-30 03:43:00,
2013-12-29 22:54:00,52.0,52.0,-100.00,NW,315,3.0,9.0,100,0.00,,,0.48,0.000000,,2013-12-30 03:54:00,
2013-12-29 23:03:00,52.0,52.0,-100.00,NW,315,3.0,9.0,100,0.00,,,0.48,0.000000,,2013-12-30 04:03:00,
2013-12-29 23:13:00,52.0,52.0,-100.00,NW,315,3.0,9.0,100,0.00,,,0.48,0.000000,,2013-12-30 04:13:00,
2013-12-29 23:43:00,49.0,49.0,-100.00,NNW,343,1.0,9.0,100,0.00,,,0.48,0.000000,,2013-12-30 04:43:00,
2013-12-29 23:53:00,49.0,49.0,-100.00,NNW,343,1.0,9.0,100,0.00,,,0.48,0.000000,,2013-12-30 04:53:00,